sensor_id;sensor_type;location;lat;lon;timestamp;P1;durP1;ratioP1;P2;durP2;ratioP2
6027;SDS011;3042;43.194;27.646;2022-12-11T00:00:08;69.20;;;63.20;;
6027;SDS011;3042;43.194;27.646;2022-12-11T00:02:36;66.20;;;61.27;;
6027;SDS011;3042;43.194;27.646;2022-12-11T00:05:04;70.37;;;65.00;;
6027;SDS011;3042;43.194;27.646;2022-12-11T00:07:33;66.77;;;60.77;;
6027;SDS011;3042;43.194;27.646;2022-12-11T00:10:00;71.73;;;66.00;;
6027;SDS011;3042;43.194;27.646;2022-12-11T00:12:28;65.43;;;59.87;;
6027;SDS011;3042;43.194;27.646;2022-12-11T00:14:55;67.80;;;62.77;;
6027;SDS011;3042;43.194;27.646;2022-12-11T00:17:23;61.83;;;56.53;;
6027;SDS011;3042;43.194;27.646;2022-12-11T00:19:50;76.13;;;70.77;;
6027;SDS011;3042;43.194;27.646;2022-12-11T00:22:17;73.27;;;67.40;;
6027;SDS011;3042;43.194;27.646;2022-12-11T00:24:46;68.73;;;62.87;;
6027;SDS011;3042;43.194;27.646;2022-12-11T00:27:13;69.70;;;65.17;;
6027;SDS011;3042;43.194;27.646;2022-12-11T00:29:41;76.27;;;69.77;;
6027;SDS011;3042;43.194;27.646;2022-12-11T00:32:08;67.43;;;62.77;;
6027;SDS011;3042;43.194;27.646;2022-12-11T00:34:36;64.10;;;59.10;;
6027;SDS011;3042;43.194;27.646;2022-12-11T00:37:03;66.87;;;60.63;;
6027;SDS011;3042;43.194;27.646;2022-12-11T00:39:30;68.80;;;62.97;;
6027;SDS011;3042;43.194;27.646;2022-12-11T00:41:59;65.60;;;60.20;;
6027;SDS011;3042;43.194;27.646;2022-12-11T00:44:26;62.47;;;57.90;;
6027;SDS011;3042;43.194;27.646;2022-12-11T00:46:53;63.53;;;58.47;;
6027;SDS011;3042;43.194;27.646;2022-12-11T00:49:21;62.50;;;57.90;;
6027;SDS011;3042;43.194;27.646;2022-12-11T00:51:48;65.53;;;61.03;;
6027;SDS011;3042;43.194;27.646;2022-12-11T00:54:15;65.70;;;60.87;;
6027;SDS011;3042;43.194;27.646;2022-12-11T00:56:42;69.23;;;63.63;;
6027;SDS011;3042;43.194;27.646;2022-12-11T00:59:11;60.73;;;56.53;;
6027;SDS011;3042;43.194;27.646;2022-12-11T01:01:39;75.17;;;67.33;;
6027;SDS011;3042;43.194;27.646;2022-12-11T01:04:06;74.03;;;67.40;;
6027;SDS011;3042;43.194;27.646;2022-12-11T01:06:34;68.50;;;63.13;;
6027;SDS011;3042;43.194;27.646;2022-12-11T01:09:01;71.70;;;64.80;;
6027;SDS011;3042;43.194;27.646;2022-12-11T01:11:46;71.03;;;65.13;;
6027;SDS011;3042;43.194;27.646;2022-12-11T01:14:14;66.63;;;61.63;;
6027;SDS011;3042;43.194;27.646;2022-12-11T01:16:42;67.07;;;61.57;;
6027;SDS011;3042;43.194;27.646;2022-12-11T01:19:09;67.57;;;61.87;;
6027;SDS011;3042;43.194;27.646;2022-12-11T01:21:36;70.80;;;65.93;;
6027;SDS011;3042;43.194;27.646;2022-12-11T01:24:04;68.80;;;62.53;;
6027;SDS011;3042;43.194;27.646;2022-12-11T01:26:31;70.03;;;64.27;;
6027;SDS011;3042;43.194;27.646;2022-12-11T01:28:58;69.07;;;63.23;;
6027;SDS011;3042;43.194;27.646;2022-12-11T01:31:27;69.80;;;63.90;;
6027;SDS011;3042;43.194;27.646;2022-12-11T01:33:55;62.97;;;58.13;;
6027;SDS011;3042;43.194;27.646;2022-12-11T01:36:22;66.07;;;60.80;;
6027;SDS011;3042;43.194;27.646;2022-12-11T01:38:49;70.80;;;64.73;;
6027;SDS011;3042;43.194;27.646;2022-12-11T01:41:19;74.70;;;67.93;;
6027;SDS011;3042;43.194;27.646;2022-12-11T01:43:59;72.90;;;67.60;;
6027;SDS011;3042;43.194;27.646;2022-12-11T01:46:32;68.33;;;63.40;;
6027;SDS011;3042;43.194;27.646;2022-12-11T01:49:01;73.53;;;67.43;;
6027;SDS011;3042;43.194;27.646;2022-12-11T01:51:31;74.30;;;67.80;;
6027;SDS011;3042;43.194;27.646;2022-12-11T01:54:01;73.40;;;67.60;;
6027;SDS011;3042;43.194;27.646;2022-12-11T01:56:33;69.77;;;64.07;;
6027;SDS011;3042;43.194;27.646;2022-12-11T01:59:03;74.60;;;68.77;;
6027;SDS011;3042;43.194;27.646;2022-12-11T02:01:34;72.97;;;67.17;;
6027;SDS011;3042;43.194;27.646;2022-12-11T02:04:05;75.50;;;70.30;;
6027;SDS011;3042;43.194;27.646;2022-12-11T02:06:36;73.07;;;66.93;;
6027;SDS011;3042;43.194;27.646;2022-12-11T02:09:05;72.70;;;66.90;;
6027;SDS011;3042;43.194;27.646;2022-12-11T02:11:38;75.93;;;69.37;;
6027;SDS011;3042;43.194;27.646;2022-12-11T02:14:16;79.37;;;73.97;;
6027;SDS011;3042;43.194;27.646;2022-12-11T02:16:54;78.03;;;72.40;;
6027;SDS011;3042;43.194;27.646;2022-12-11T02:19:30;74.60;;;68.37;;
6027;SDS011;3042;43.194;27.646;2022-12-11T02:22:14;81.83;;;76.53;;
6027;SDS011;3042;43.194;27.646;2022-12-11T02:24:56;75.93;;;69.80;;
6027;SDS011;3042;43.194;27.646;2022-12-11T02:27:32;73.87;;;68.27;;
6027;SDS011;3042;43.194;27.646;2022-12-11T02:30:07;73.43;;;68.03;;
6027;SDS011;3042;43.194;27.646;2022-12-11T02:32:37;75.43;;;69.73;;
6027;SDS011;3042;43.194;27.646;2022-12-11T02:35:10;72.93;;;66.33;;
6027;SDS011;3042;43.194;27.646;2022-12-11T02:37:42;71.23;;;65.17;;
6027;SDS011;3042;43.194;27.646;2022-12-11T02:40:13;72.23;;;66.37;;
6027;SDS011;3042;43.194;27.646;2022-12-11T02:42:46;80.13;;;72.47;;
6027;SDS011;3042;43.194;27.646;2022-12-11T02:45:15;72.20;;;66.83;;
6027;SDS011;3042;43.194;27.646;2022-12-11T02:47:45;67.63;;;62.40;;
6027;SDS011;3042;43.194;27.646;2022-12-11T02:50:16;68.33;;;62.70;;
6027;SDS011;3042;43.194;27.646;2022-12-11T02:52:47;72.40;;;67.40;;
6027;SDS011;3042;43.194;27.646;2022-12-11T02:55:20;72.03;;;65.33;;
6027;SDS011;3042;43.194;27.646;2022-12-11T02:57:49;70.20;;;64.20;;
6027;SDS011;3042;43.194;27.646;2022-12-11T03:00:20;75.00;;;69.03;;
6027;SDS011;3042;43.194;27.646;2022-12-11T03:02:47;66.70;;;61.27;;
6027;SDS011;3042;43.194;27.646;2022-12-11T03:05:15;73.87;;;67.90;;
6027;SDS011;3042;43.194;27.646;2022-12-11T03:07:42;63.63;;;57.07;;
6027;SDS011;3042;43.194;27.646;2022-12-11T03:10:11;66.53;;;59.20;;
6027;SDS011;3042;43.194;27.646;2022-12-11T03:12:41;69.50;;;63.10;;
6027;SDS011;3042;43.194;27.646;2022-12-11T03:15:12;70.50;;;65.00;;
6027;SDS011;3042;43.194;27.646;2022-12-11T03:17:45;66.63;;;61.40;;
6027;SDS011;3042;43.194;27.646;2022-12-11T03:20:24;72.33;;;66.23;;
6027;SDS011;3042;43.194;27.646;2022-12-11T03:23:01;66.43;;;61.33;;
6027;SDS011;3042;43.194;27.646;2022-12-11T03:25:37;69.87;;;64.50;;
6027;SDS011;3042;43.194;27.646;2022-12-11T03:28:12;71.53;;;64.90;;
6027;SDS011;3042;43.194;27.646;2022-12-11T03:30:44;68.37;;;63.13;;
6027;SDS011;3042;43.194;27.646;2022-12-11T03:33:16;73.27;;;66.90;;
6027;SDS011;3042;43.194;27.646;2022-12-11T03:35:50;70.37;;;64.60;;
6027;SDS011;3042;43.194;27.646;2022-12-11T03:38:22;74.00;;;68.00;;
6027;SDS011;3042;43.194;27.646;2022-12-11T03:40:57;66.83;;;60.67;;
6027;SDS011;3042;43.194;27.646;2022-12-11T03:43:28;72.90;;;66.37;;
6027;SDS011;3042;43.194;27.646;2022-12-11T03:45:57;67.43;;;62.43;;
6027;SDS011;3042;43.194;27.646;2022-12-11T03:48:28;69.00;;;62.97;;
6027;SDS011;3042;43.194;27.646;2022-12-11T03:51:01;70.93;;;64.63;;
6027;SDS011;3042;43.194;27.646;2022-12-11T03:53:31;64.70;;;59.90;;
6027;SDS011;3042;43.194;27.646;2022-12-11T03:56:00;65.70;;;60.60;;
6027;SDS011;3042;43.194;27.646;2022-12-11T03:58:29;67.30;;;61.43;;
6027;SDS011;3042;43.194;27.646;2022-12-11T04:00:57;69.43;;;64.10;;
6027;SDS011;3042;43.194;27.646;2022-12-11T04:03:24;71.50;;;65.40;;
6027;SDS011;3042;43.194;27.646;2022-12-11T04:05:54;66.10;;;60.10;;
6027;SDS011;3042;43.194;27.646;2022-12-11T04:08:22;69.10;;;62.00;;
6027;SDS011;3042;43.194;27.646;2022-12-11T04:10:49;62.57;;;57.17;;
6027;SDS011;3042;43.194;27.646;2022-12-11T04:13:37;64.97;;;59.17;;
6027;SDS011;3042;43.194;27.646;2022-12-11T04:16:06;71.93;;;65.10;;
6027;SDS011;3042;43.194;27.646;2022-12-11T04:18:33;66.37;;;60.97;;
6027;SDS011;3042;43.194;27.646;2022-12-11T04:21:20;65.23;;;59.60;;
6027;SDS011;3042;43.194;27.646;2022-12-11T04:24:05;72.67;;;66.67;;
6027;SDS011;3042;43.194;27.646;2022-12-11T04:26:41;67.17;;;60.90;;
6027;SDS011;3042;43.194;27.646;2022-12-11T04:29:09;70.47;;;65.27;;
6027;SDS011;3042;43.194;27.646;2022-12-11T04:31:36;72.63;;;66.77;;
6027;SDS011;3042;43.194;27.646;2022-12-11T04:34:03;62.77;;;57.37;;
6027;SDS011;3042;43.194;27.646;2022-12-11T04:36:32;63.63;;;58.03;;
6027;SDS011;3042;43.194;27.646;2022-12-11T04:39:00;64.83;;;58.07;;
6027;SDS011;3042;43.194;27.646;2022-12-11T04:41:27;55.67;;;50.97;;
6027;SDS011;3042;43.194;27.646;2022-12-11T04:43:54;57.43;;;52.40;;
6027;SDS011;3042;43.194;27.646;2022-12-11T04:46:22;66.53;;;61.00;;
6027;SDS011;3042;43.194;27.646;2022-12-11T04:48:50;69.70;;;64.03;;
6027;SDS011;3042;43.194;27.646;2022-12-11T04:51:18;61.30;;;57.00;;
6027;SDS011;3042;43.194;27.646;2022-12-11T04:53:47;64.30;;;59.13;;
6027;SDS011;3042;43.194;27.646;2022-12-11T04:56:15;64.17;;;59.17;;
6027;SDS011;3042;43.194;27.646;2022-12-11T04:58:42;65.53;;;59.70;;
6027;SDS011;3042;43.194;27.646;2022-12-11T05:01:11;66.73;;;61.93;;
6027;SDS011;3042;43.194;27.646;2022-12-11T05:03:40;61.57;;;57.00;;
6027;SDS011;3042;43.194;27.646;2022-12-11T05:06:08;66.77;;;61.73;;
6027;SDS011;3042;43.194;27.646;2022-12-11T05:08:36;56.10;;;51.60;;
6027;SDS011;3042;43.194;27.646;2022-12-11T05:11:06;60.37;;;55.47;;
6027;SDS011;3042;43.194;27.646;2022-12-11T05:13:36;69.50;;;53.40;;
6027;SDS011;3042;43.194;27.646;2022-12-11T05:16:05;56.00;;;52.10;;
6027;SDS011;3042;43.194;27.646;2022-12-11T05:18:33;59.63;;;54.63;;
6027;SDS011;3042;43.194;27.646;2022-12-11T05:21:02;58.13;;;53.30;;
6027;SDS011;3042;43.194;27.646;2022-12-11T05:23:31;64.77;;;60.10;;
6027;SDS011;3042;43.194;27.646;2022-12-11T05:26:00;62.40;;;56.47;;
6027;SDS011;3042;43.194;27.646;2022-12-11T05:28:31;57.37;;;52.73;;
6027;SDS011;3042;43.194;27.646;2022-12-11T05:31:01;59.27;;;54.00;;
6027;SDS011;3042;43.194;27.646;2022-12-11T05:33:30;56.63;;;52.13;;
6027;SDS011;3042;43.194;27.646;2022-12-11T05:35:58;60.23;;;55.50;;
6027;SDS011;3042;43.194;27.646;2022-12-11T05:38:26;61.40;;;56.50;;
6027;SDS011;3042;43.194;27.646;2022-12-11T05:40:56;69.77;;;64.13;;
6027;SDS011;3042;43.194;27.646;2022-12-11T05:43:24;61.93;;;56.57;;
6027;SDS011;3042;43.194;27.646;2022-12-11T05:45:54;61.73;;;55.87;;
6027;SDS011;3042;43.194;27.646;2022-12-11T05:48:22;56.77;;;52.20;;
6027;SDS011;3042;43.194;27.646;2022-12-11T05:50:56;57.20;;;52.30;;
6027;SDS011;3042;43.194;27.646;2022-12-11T05:53:23;57.63;;;53.47;;
6027;SDS011;3042;43.194;27.646;2022-12-11T05:55:50;64.00;;;58.70;;
6027;SDS011;3042;43.194;27.646;2022-12-11T05:58:18;64.57;;;58.57;;
6027;SDS011;3042;43.194;27.646;2022-12-11T06:00:45;67.47;;;62.20;;
6027;SDS011;3042;43.194;27.646;2022-12-11T06:03:14;66.43;;;61.87;;
6027;SDS011;3042;43.194;27.646;2022-12-11T06:05:45;59.93;;;55.80;;
6027;SDS011;3042;43.194;27.646;2022-12-11T06:08:14;59.67;;;54.30;;
6027;SDS011;3042;43.194;27.646;2022-12-11T06:10:43;64.47;;;59.57;;
6027;SDS011;3042;43.194;27.646;2022-12-11T06:13:12;58.93;;;53.83;;
6027;SDS011;3042;43.194;27.646;2022-12-11T06:15:40;60.60;;;56.37;;
6027;SDS011;3042;43.194;27.646;2022-12-11T06:18:08;63.27;;;58.17;;
6027;SDS011;3042;43.194;27.646;2022-12-11T06:20:36;63.53;;;58.17;;
6027;SDS011;3042;43.194;27.646;2022-12-11T06:23:04;58.27;;;53.53;;
6027;SDS011;3042;43.194;27.646;2022-12-11T06:25:31;55.23;;;50.20;;
6027;SDS011;3042;43.194;27.646;2022-12-11T06:27:58;63.97;;;58.80;;
6027;SDS011;3042;43.194;27.646;2022-12-11T06:30:26;58.33;;;53.93;;
6027;SDS011;3042;43.194;27.646;2022-12-11T06:32:53;60.43;;;54.90;;
6027;SDS011;3042;43.194;27.646;2022-12-11T06:35:20;61.50;;;56.70;;
6027;SDS011;3042;43.194;27.646;2022-12-11T06:37:49;63.50;;;57.70;;
6027;SDS011;3042;43.194;27.646;2022-12-11T06:40:16;66.00;;;60.43;;
6027;SDS011;3042;43.194;27.646;2022-12-11T06:42:44;66.87;;;60.33;;
6027;SDS011;3042;43.194;27.646;2022-12-11T06:45:13;64.20;;;58.23;;
6027;SDS011;3042;43.194;27.646;2022-12-11T06:47:40;64.40;;;58.17;;
6027;SDS011;3042;43.194;27.646;2022-12-11T06:50:08;60.47;;;55.60;;
6027;SDS011;3042;43.194;27.646;2022-12-11T06:52:35;66.97;;;61.07;;
6027;SDS011;3042;43.194;27.646;2022-12-11T06:55:05;61.37;;;55.63;;
6027;SDS011;3042;43.194;27.646;2022-12-11T06:57:33;65.30;;;60.93;;
6027;SDS011;3042;43.194;27.646;2022-12-11T07:00:01;64.70;;;60.20;;
6027;SDS011;3042;43.194;27.646;2022-12-11T07:02:28;64.40;;;59.20;;
6027;SDS011;3042;43.194;27.646;2022-12-11T07:04:55;65.37;;;60.43;;
6027;SDS011;3042;43.194;27.646;2022-12-11T07:07:24;61.23;;;56.40;;
6027;SDS011;3042;43.194;27.646;2022-12-11T07:09:51;63.83;;;58.90;;
6027;SDS011;3042;43.194;27.646;2022-12-11T07:12:20;61.83;;;56.80;;
6027;SDS011;3042;43.194;27.646;2022-12-11T07:14:47;64.17;;;58.00;;
6027;SDS011;3042;43.194;27.646;2022-12-11T07:17:14;64.63;;;59.40;;
6027;SDS011;3042;43.194;27.646;2022-12-11T07:19:42;66.47;;;60.67;;
6027;SDS011;3042;43.194;27.646;2022-12-11T07:22:09;62.20;;;57.00;;
6027;SDS011;3042;43.194;27.646;2022-12-11T07:24:37;70.47;;;66.03;;
6027;SDS011;3042;43.194;27.646;2022-12-11T07:27:04;67.00;;;60.27;;
6027;SDS011;3042;43.194;27.646;2022-12-11T07:29:33;68.30;;;62.23;;
6027;SDS011;3042;43.194;27.646;2022-12-11T07:32:00;68.77;;;63.23;;
6027;SDS011;3042;43.194;27.646;2022-12-11T07:34:27;69.00;;;63.40;;
6027;SDS011;3042;43.194;27.646;2022-12-11T07:36:54;63.63;;;58.77;;
6027;SDS011;3042;43.194;27.646;2022-12-11T07:39:22;64.57;;;58.80;;
6027;SDS011;3042;43.194;27.646;2022-12-11T07:41:49;62.87;;;57.97;;
6027;SDS011;3042;43.194;27.646;2022-12-11T07:44:19;66.87;;;60.60;;
6027;SDS011;3042;43.194;27.646;2022-12-11T07:46:48;59.07;;;55.03;;
6027;SDS011;3042;43.194;27.646;2022-12-11T07:49:15;61.63;;;56.23;;
6027;SDS011;3042;43.194;27.646;2022-12-11T07:51:42;61.13;;;56.07;;
6027;SDS011;3042;43.194;27.646;2022-12-11T07:54:10;58.70;;;54.30;;
6027;SDS011;3042;43.194;27.646;2022-12-11T07:56:40;60.60;;;56.20;;
6027;SDS011;3042;43.194;27.646;2022-12-11T07:59:09;63.77;;;58.80;;
6027;SDS011;3042;43.194;27.646;2022-12-11T08:01:36;60.77;;;56.50;;
6027;SDS011;3042;43.194;27.646;2022-12-11T08:04:08;62.33;;;57.73;;
6027;SDS011;3042;43.194;27.646;2022-12-11T08:06:39;64.00;;;58.70;;
6027;SDS011;3042;43.194;27.646;2022-12-11T08:09:08;62.50;;;57.60;;
6027;SDS011;3042;43.194;27.646;2022-12-11T08:11:36;61.37;;;56.67;;
6027;SDS011;3042;43.194;27.646;2022-12-11T08:14:04;62.07;;;56.57;;
6027;SDS011;3042;43.194;27.646;2022-12-11T08:16:32;60.80;;;55.90;;
6027;SDS011;3042;43.194;27.646;2022-12-11T08:19:00;58.43;;;54.33;;
6027;SDS011;3042;43.194;27.646;2022-12-11T08:21:29;60.70;;;55.43;;
6027;SDS011;3042;43.194;27.646;2022-12-11T08:23:56;62.50;;;57.50;;
6027;SDS011;3042;43.194;27.646;2022-12-11T08:26:24;55.23;;;51.40;;
6027;SDS011;3042;43.194;27.646;2022-12-11T08:28:53;61.00;;;53.93;;
6027;SDS011;3042;43.194;27.646;2022-12-11T08:31:21;53.97;;;50.27;;
6027;SDS011;3042;43.194;27.646;2022-12-11T08:33:50;57.17;;;52.17;;
6027;SDS011;3042;43.194;27.646;2022-12-11T08:36:19;54.60;;;50.20;;
6027;SDS011;3042;43.194;27.646;2022-12-11T08:38:50;51.83;;;48.00;;
6027;SDS011;3042;43.194;27.646;2022-12-11T08:41:21;53.73;;;49.80;;
6027;SDS011;3042;43.194;27.646;2022-12-11T08:43:50;55.67;;;49.43;;
6027;SDS011;3042;43.194;27.646;2022-12-11T08:46:19;48.27;;;44.73;;
6027;SDS011;3042;43.194;27.646;2022-12-11T08:48:48;46.83;;;43.30;;
6027;SDS011;3042;43.194;27.646;2022-12-11T08:51:16;53.43;;;49.13;;
6027;SDS011;3042;43.194;27.646;2022-12-11T08:53:45;54.23;;;50.07;;
6027;SDS011;3042;43.194;27.646;2022-12-11T08:56:15;56.97;;;52.83;;
6027;SDS011;3042;43.194;27.646;2022-12-11T08:58:44;60.97;;;55.33;;
6027;SDS011;3042;43.194;27.646;2022-12-11T09:01:12;52.33;;;48.73;;
6027;SDS011;3042;43.194;27.646;2022-12-11T09:03:40;53.10;;;48.60;;
6027;SDS011;3042;43.194;27.646;2022-12-11T09:06:09;55.37;;;51.37;;
6027;SDS011;3042;43.194;27.646;2022-12-11T09:08:38;53.27;;;49.50;;
6027;SDS011;3042;43.194;27.646;2022-12-11T09:11:06;52.33;;;48.93;;
6027;SDS011;3042;43.194;27.646;2022-12-11T09:13:36;59.47;;;53.93;;
6027;SDS011;3042;43.194;27.646;2022-12-11T09:16:05;53.33;;;49.37;;
6027;SDS011;3042;43.194;27.646;2022-12-11T09:18:33;53.00;;;49.03;;
6027;SDS011;3042;43.194;27.646;2022-12-11T09:21:01;56.97;;;53.03;;
6027;SDS011;3042;43.194;27.646;2022-12-11T09:23:30;59.60;;;52.07;;
6027;SDS011;3042;43.194;27.646;2022-12-11T09:25:57;53.07;;;49.03;;
6027;SDS011;3042;43.194;27.646;2022-12-11T09:28:24;48.10;;;44.87;;
6027;SDS011;3042;43.194;27.646;2022-12-11T09:31:13;46.60;;;43.20;;
6027;SDS011;3042;43.194;27.646;2022-12-11T09:33:41;51.67;;;48.00;;
6027;SDS011;3042;43.194;27.646;2022-12-11T09:36:09;63.17;;;57.47;;
6027;SDS011;3042;43.194;27.646;2022-12-11T09:38:37;56.70;;;52.63;;
6027;SDS011;3042;43.194;27.646;2022-12-11T09:41:14;51.27;;;47.73;;
6027;SDS011;3042;43.194;27.646;2022-12-11T09:43:57;49.53;;;46.30;;
6027;SDS011;3042;43.194;27.646;2022-12-11T09:46:31;49.77;;;46.10;;
6027;SDS011;3042;43.194;27.646;2022-12-11T09:48:59;49.70;;;45.27;;
6027;SDS011;3042;43.194;27.646;2022-12-11T09:51:29;48.47;;;45.33;;
6027;SDS011;3042;43.194;27.646;2022-12-11T09:54:03;50.60;;;47.00;;
6027;SDS011;3042;43.194;27.646;2022-12-11T09:56:31;48.33;;;44.70;;
6027;SDS011;3042;43.194;27.646;2022-12-11T09:59:09;47.57;;;44.60;;
6027;SDS011;3042;43.194;27.646;2022-12-11T10:01:48;48.57;;;45.57;;
6027;SDS011;3042;43.194;27.646;2022-12-11T10:04:27;47.77;;;44.90;;
6027;SDS011;3042;43.194;27.646;2022-12-11T10:07:05;41.73;;;39.17;;
6027;SDS011;3042;43.194;27.646;2022-12-11T10:09:41;47.50;;;44.50;;
6027;SDS011;3042;43.194;27.646;2022-12-11T10:12:18;53.43;;;50.13;;
6027;SDS011;3042;43.194;27.646;2022-12-11T10:15:11;45.27;;;42.63;;
6027;SDS011;3042;43.194;27.646;2022-12-11T10:17:46;50.13;;;46.40;;
6027;SDS011;3042;43.194;27.646;2022-12-11T10:20:16;46.57;;;43.67;;
6027;SDS011;3042;43.194;27.646;2022-12-11T10:22:48;43.47;;;40.90;;
6027;SDS011;3042;43.194;27.646;2022-12-11T10:25:18;41.13;;;38.07;;
6027;SDS011;3042;43.194;27.646;2022-12-11T10:27:49;43.57;;;41.07;;
6027;SDS011;3042;43.194;27.646;2022-12-11T10:30:18;44.83;;;42.00;;
6027;SDS011;3042;43.194;27.646;2022-12-11T10:32:53;45.80;;;42.30;;
6027;SDS011;3042;43.194;27.646;2022-12-11T10:35:30;44.73;;;41.30;;
6027;SDS011;3042;43.194;27.646;2022-12-11T10:38:09;41.63;;;39.07;;
6027;SDS011;3042;43.194;27.646;2022-12-11T10:40:40;42.90;;;39.60;;
6027;SDS011;3042;43.194;27.646;2022-12-11T10:43:11;38.23;;;35.27;;
6027;SDS011;3042;43.194;27.646;2022-12-11T10:45:38;43.00;;;40.50;;
6027;SDS011;3042;43.194;27.646;2022-12-11T10:48:09;40.20;;;37.40;;
6027;SDS011;3042;43.194;27.646;2022-12-11T10:50:37;44.17;;;40.90;;
6027;SDS011;3042;43.194;27.646;2022-12-11T10:53:05;42.83;;;40.13;;
6027;SDS011;3042;43.194;27.646;2022-12-11T10:55:45;45.37;;;41.00;;
6027;SDS011;3042;43.194;27.646;2022-12-11T10:58:16;43.47;;;39.60;;
6027;SDS011;3042;43.194;27.646;2022-12-11T11:00:45;46.80;;;43.33;;
6027;SDS011;3042;43.194;27.646;2022-12-11T11:03:24;41.00;;;38.13;;
6027;SDS011;3042;43.194;27.646;2022-12-11T11:06:00;41.70;;;38.43;;
6027;SDS011;3042;43.194;27.646;2022-12-11T11:08:34;48.53;;;44.13;;
6027;SDS011;3042;43.194;27.646;2022-12-11T11:11:05;45.00;;;41.70;;
6027;SDS011;3042;43.194;27.646;2022-12-11T11:13:41;47.43;;;43.93;;
6027;SDS011;3042;43.194;27.646;2022-12-11T11:16:10;40.23;;;37.10;;
6027;SDS011;3042;43.194;27.646;2022-12-11T11:18:40;41.90;;;38.67;;
6027;SDS011;3042;43.194;27.646;2022-12-11T11:21:14;42.93;;;39.43;;
6027;SDS011;3042;43.194;27.646;2022-12-11T11:23:42;37.07;;;34.17;;
6027;SDS011;3042;43.194;27.646;2022-12-11T11:26:09;40.80;;;36.70;;
6027;SDS011;3042;43.194;27.646;2022-12-11T11:28:38;45.87;;;41.57;;
6027;SDS011;3042;43.194;27.646;2022-12-11T11:31:09;44.43;;;40.63;;
6027;SDS011;3042;43.194;27.646;2022-12-11T11:33:45;44.20;;;41.00;;
6027;SDS011;3042;43.194;27.646;2022-12-11T11:36:21;46.47;;;42.97;;
6027;SDS011;3042;43.194;27.646;2022-12-11T11:38:55;46.97;;;43.90;;
6027;SDS011;3042;43.194;27.646;2022-12-11T11:41:32;44.93;;;41.40;;
6027;SDS011;3042;43.194;27.646;2022-12-11T11:44:08;44.40;;;41.03;;
6027;SDS011;3042;43.194;27.646;2022-12-11T11:46:40;47.57;;;43.93;;
6027;SDS011;3042;43.194;27.646;2022-12-11T11:49:14;50.00;;;46.30;;
6027;SDS011;3042;43.194;27.646;2022-12-11T11:51:50;105.23;;;56.63;;
6027;SDS011;3042;43.194;27.646;2022-12-11T11:54:24;45.13;;;41.77;;
6027;SDS011;3042;43.194;27.646;2022-12-11T11:56:57;43.53;;;40.07;;
6027;SDS011;3042;43.194;27.646;2022-12-11T11:59:28;40.07;;;37.07;;
6027;SDS011;3042;43.194;27.646;2022-12-11T12:01:57;41.97;;;38.10;;
6027;SDS011;3042;43.194;27.646;2022-12-11T12:04:28;43.37;;;39.07;;
6027;SDS011;3042;43.194;27.646;2022-12-11T12:07:03;44.67;;;40.10;;
6027;SDS011;3042;43.194;27.646;2022-12-11T12:09:42;44.90;;;40.80;;
6027;SDS011;3042;43.194;27.646;2022-12-11T12:12:19;46.80;;;41.80;;
6027;SDS011;3042;43.194;27.646;2022-12-11T12:14:59;46.70;;;43.30;;
6027;SDS011;3042;43.194;27.646;2022-12-11T12:17:37;47.40;;;43.23;;
6027;SDS011;3042;43.194;27.646;2022-12-11T12:20:16;41.80;;;37.90;;
6027;SDS011;3042;43.194;27.646;2022-12-11T12:22:52;40.60;;;36.60;;
6027;SDS011;3042;43.194;27.646;2022-12-11T12:25:28;42.23;;;38.80;;
6027;SDS011;3042;43.194;27.646;2022-12-11T12:28:07;42.03;;;38.40;;
6027;SDS011;3042;43.194;27.646;2022-12-11T12:30:48;43.00;;;38.90;;
6027;SDS011;3042;43.194;27.646;2022-12-11T12:33:31;81.23;;;44.60;;
6027;SDS011;3042;43.194;27.646;2022-12-11T12:36:13;46.17;;;42.63;;
6027;SDS011;3042;43.194;27.646;2022-12-11T12:38:50;44.50;;;40.60;;
6027;SDS011;3042;43.194;27.646;2022-12-11T12:41:21;45.73;;;41.63;;
6027;SDS011;3042;43.194;27.646;2022-12-11T12:44:04;45.20;;;41.07;;
6027;SDS011;3042;43.194;27.646;2022-12-11T12:46:42;50.17;;;41.77;;
6027;SDS011;3042;43.194;27.646;2022-12-11T12:49:23;45.10;;;41.10;;
6027;SDS011;3042;43.194;27.646;2022-12-11T12:51:58;46.30;;;42.33;;
6027;SDS011;3042;43.194;27.646;2022-12-11T12:54:26;46.10;;;42.47;;
6027;SDS011;3042;43.194;27.646;2022-12-11T12:56:54;40.77;;;37.43;;
6027;SDS011;3042;43.194;27.646;2022-12-11T12:59:25;44.10;;;40.03;;
6027;SDS011;3042;43.194;27.646;2022-12-11T13:01:59;45.07;;;41.47;;
6027;SDS011;3042;43.194;27.646;2022-12-11T13:04:33;47.03;;;42.10;;
6027;SDS011;3042;43.194;27.646;2022-12-11T13:07:20;50.53;;;45.93;;
6027;SDS011;3042;43.194;27.646;2022-12-11T13:09:55;48.80;;;44.73;;
6027;SDS011;3042;43.194;27.646;2022-12-11T13:12:30;51.90;;;47.20;;
6027;SDS011;3042;43.194;27.646;2022-12-11T13:14:59;49.57;;;45.47;;
6027;SDS011;3042;43.194;27.646;2022-12-11T13:17:35;50.60;;;45.63;;
6027;SDS011;3042;43.194;27.646;2022-12-11T13:20:14;52.13;;;47.60;;
6027;SDS011;3042;43.194;27.646;2022-12-11T13:22:54;47.93;;;44.03;;
6027;SDS011;3042;43.194;27.646;2022-12-11T13:25:44;49.00;;;44.70;;
6027;SDS011;3042;43.194;27.646;2022-12-11T13:28:20;49.53;;;44.87;;
6027;SDS011;3042;43.194;27.646;2022-12-11T13:31:00;49.43;;;44.23;;
6027;SDS011;3042;43.194;27.646;2022-12-11T13:33:30;47.63;;;43.77;;
6027;SDS011;3042;43.194;27.646;2022-12-11T13:36:20;52.30;;;47.60;;
6027;SDS011;3042;43.194;27.646;2022-12-11T13:38:53;51.53;;;47.30;;
6027;SDS011;3042;43.194;27.646;2022-12-11T13:41:22;51.30;;;45.70;;
6027;SDS011;3042;43.194;27.646;2022-12-11T13:43:50;50.90;;;45.63;;
6027;SDS011;3042;43.194;27.646;2022-12-11T13:46:19;48.47;;;44.93;;
6027;SDS011;3042;43.194;27.646;2022-12-11T13:48:51;53.97;;;48.17;;
6027;SDS011;3042;43.194;27.646;2022-12-11T13:51:22;55.83;;;46.30;;
6027;SDS011;3042;43.194;27.646;2022-12-11T13:54:02;49.37;;;44.80;;
6027;SDS011;3042;43.194;27.646;2022-12-11T13:56:31;59.37;;;46.93;;
6027;SDS011;3042;43.194;27.646;2022-12-11T13:58:58;51.83;;;46.53;;
6027;SDS011;3042;43.194;27.646;2022-12-11T14:01:26;53.70;;;48.63;;
6027;SDS011;3042;43.194;27.646;2022-12-11T14:03:56;53.77;;;49.10;;
6027;SDS011;3042;43.194;27.646;2022-12-11T14:06:27;57.50;;;51.70;;
6027;SDS011;3042;43.194;27.646;2022-12-11T14:08:58;54.17;;;49.37;;
6027;SDS011;3042;43.194;27.646;2022-12-11T14:11:32;56.67;;;50.93;;
6027;SDS011;3042;43.194;27.646;2022-12-11T14:14:03;57.50;;;52.00;;
6027;SDS011;3042;43.194;27.646;2022-12-11T14:16:33;63.40;;;52.63;;
6027;SDS011;3042;43.194;27.646;2022-12-11T14:19:02;55.53;;;50.40;;
6027;SDS011;3042;43.194;27.646;2022-12-11T14:21:31;58.20;;;49.97;;
6027;SDS011;3042;43.194;27.646;2022-12-11T14:24:00;55.87;;;50.80;;
6027;SDS011;3042;43.194;27.646;2022-12-11T14:26:31;66.67;;;59.07;;
6027;SDS011;3042;43.194;27.646;2022-12-11T14:28:59;63.53;;;57.17;;
6027;SDS011;3042;43.194;27.646;2022-12-11T14:31:27;67.53;;;60.57;;
6027;SDS011;3042;43.194;27.646;2022-12-11T14:34:00;64.57;;;57.83;;
6027;SDS011;3042;43.194;27.646;2022-12-11T14:36:32;63.77;;;57.17;;
6027;SDS011;3042;43.194;27.646;2022-12-11T14:39:02;71.13;;;65.20;;
6027;SDS011;3042;43.194;27.646;2022-12-11T14:41:37;65.27;;;60.00;;
6027;SDS011;3042;43.194;27.646;2022-12-11T14:44:12;65.73;;;59.70;;
6027;SDS011;3042;43.194;27.646;2022-12-11T14:46:42;66.77;;;61.20;;
6027;SDS011;3042;43.194;27.646;2022-12-11T14:49:15;69.70;;;63.30;;
6027;SDS011;3042;43.194;27.646;2022-12-11T14:51:48;72.40;;;66.70;;
6027;SDS011;3042;43.194;27.646;2022-12-11T14:54:25;71.77;;;64.70;;